sensor_id;sensor_type;location;lat;lon;timestamp;P1;durP1;ratioP1;P2;durP2;ratioP2
7361;SDS011;3721;44.490;11.220;2022-07-22T00:02:06;6.63;;;4.60;;
7361;SDS011;3721;44.490;11.220;2022-07-22T00:04:32;7.33;;;4.60;;
7361;SDS011;3721;44.490;11.220;2022-07-22T00:06:58;11.80;;;4.13;;
7361;SDS011;3721;44.490;11.220;2022-07-22T00:09:24;12.43;;;4.60;;
7361;SDS011;3721;44.490;11.220;2022-07-22T00:11:49;4.93;;;3.80;;
7361;SDS011;3721;44.490;11.220;2022-07-22T00:14:15;7.50;;;5.10;;
7361;SDS011;3721;44.490;11.220;2022-07-22T00:16:41;6.60;;;4.60;;
7361;SDS011;3721;44.490;11.220;2022-07-22T00:19:07;8.07;;;4.57;;
7361;SDS011;3721;44.490;11.220;2022-07-22T00:21:33;7.53;;;5.47;;
7361;SDS011;3721;44.490;11.220;2022-07-22T00:23:59;7.93;;;4.90;;
7361;SDS011;3721;44.490;11.220;2022-07-22T00:26:25;7.30;;;5.00;;
7361;SDS011;3721;44.490;11.220;2022-07-22T00:28:50;7.10;;;4.80;;
7361;SDS011;3721;44.490;11.220;2022-07-22T00:31:16;7.53;;;5.87;;
7361;SDS011;3721;44.490;11.220;2022-07-22T00:33:42;10.10;;;6.10;;
7361;SDS011;3721;44.490;11.220;2022-07-22T00:36:08;7.40;;;5.27;;
7361;SDS011;3721;44.490;11.220;2022-07-22T00:38:34;11.60;;;5.73;;
7361;SDS011;3721;44.490;11.220;2022-07-22T00:40:59;11.67;;;5.97;;
7361;SDS011;3721;44.490;11.220;2022-07-22T00:43:26;7.30;;;5.27;;
7361;SDS011;3721;44.490;11.220;2022-07-22T00:45:52;7.30;;;5.30;;
7361;SDS011;3721;44.490;11.220;2022-07-22T00:48:18;11.20;;;6.27;;
7361;SDS011;3721;44.490;11.220;2022-07-22T00:50:44;12.53;;;5.90;;
7361;SDS011;3721;44.490;11.220;2022-07-22T00:53:10;12.50;;;6.40;;
7361;SDS011;3721;44.490;11.220;2022-07-22T00:55:36;8.37;;;5.67;;
7361;SDS011;3721;44.490;11.220;2022-07-22T00:58:03;8.40;;;5.87;;
7361;SDS011;3721;44.490;11.220;2022-07-22T01:00:29;11.17;;;5.90;;
7361;SDS011;3721;44.490;11.220;2022-07-22T01:02:55;8.17;;;5.50;;
7361;SDS011;3721;44.490;11.220;2022-07-22T01:05:21;10.73;;;6.20;;
7361;SDS011;3721;44.490;11.220;2022-07-22T01:07:47;11.17;;;5.60;;
7361;SDS011;3721;44.490;11.220;2022-07-22T01:10:13;11.23;;;5.50;;
7361;SDS011;3721;44.490;11.220;2022-07-22T01:12:39;7.00;;;5.23;;
7361;SDS011;3721;44.490;11.220;2022-07-22T01:15:05;9.97;;;5.50;;
7361;SDS011;3721;44.490;11.220;2022-07-22T01:17:31;6.53;;;5.10;;
7361;SDS011;3721;44.490;11.220;2022-07-22T01:19:59;10.43;;;5.57;;
7361;SDS011;3721;44.490;11.220;2022-07-22T01:22:26;9.73;;;5.90;;
7361;SDS011;3721;44.490;11.220;2022-07-22T01:24:52;8.33;;;5.80;;
7361;SDS011;3721;44.490;11.220;2022-07-22T01:27:18;7.70;;;5.73;;
7361;SDS011;3721;44.490;11.220;2022-07-22T01:29:43;8.70;;;6.43;;
7361;SDS011;3721;44.490;11.220;2022-07-22T01:32:09;11.83;;;6.63;;
7361;SDS011;3721;44.490;11.220;2022-07-22T01:34:35;9.00;;;5.93;;
7361;SDS011;3721;44.490;11.220;2022-07-22T01:37:01;7.67;;;6.37;;
7361;SDS011;3721;44.490;11.220;2022-07-22T01:39:26;10.40;;;5.23;;
7361;SDS011;3721;44.490;11.220;2022-07-22T01:41:52;8.77;;;5.77;;
7361;SDS011;3721;44.490;11.220;2022-07-22T01:44:18;8.47;;;5.70;;
7361;SDS011;3721;44.490;11.220;2022-07-22T01:46:44;8.33;;;6.87;;
7361;SDS011;3721;44.490;11.220;2022-07-22T01:49:09;11.23;;;6.60;;
7361;SDS011;3721;44.490;11.220;2022-07-22T01:51:35;8.50;;;6.20;;
7361;SDS011;3721;44.490;11.220;2022-07-22T01:54:01;9.17;;;6.57;;
7361;SDS011;3721;44.490;11.220;2022-07-22T01:56:27;8.80;;;6.10;;
7361;SDS011;3721;44.490;11.220;2022-07-22T01:58:52;10.93;;;6.83;;
7361;SDS011;3721;44.490;11.220;2022-07-22T02:01:18;11.70;;;7.23;;
7361;SDS011;3721;44.490;11.220;2022-07-22T02:03:44;9.53;;;7.03;;
7361;SDS011;3721;44.490;11.220;2022-07-22T02:06:10;8.67;;;6.33;;
7361;SDS011;3721;44.490;11.220;2022-07-22T02:08:35;9.30;;;7.00;;
7361;SDS011;3721;44.490;11.220;2022-07-22T02:11:01;8.43;;;6.40;;
7361;SDS011;3721;44.490;11.220;2022-07-22T02:13:27;8.43;;;6.70;;
7361;SDS011;3721;44.490;11.220;2022-07-22T02:15:53;9.40;;;6.33;;
7361;SDS011;3721;44.490;11.220;2022-07-22T02:18:18;12.37;;;6.83;;
7361;SDS011;3721;44.490;11.220;2022-07-22T02:20:45;10.00;;;6.27;;
7361;SDS011;3721;44.490;11.220;2022-07-22T02:23:11;8.37;;;6.87;;
7361;SDS011;3721;44.490;11.220;2022-07-22T02:25:37;10.17;;;6.97;;
7361;SDS011;3721;44.490;11.220;2022-07-22T02:28:05;12.80;;;7.33;;
7361;SDS011;3721;44.490;11.220;2022-07-22T02:30:30;9.97;;;7.00;;
7361;SDS011;3721;44.490;11.220;2022-07-22T02:32:57;14.30;;;6.80;;
7361;SDS011;3721;44.490;11.220;2022-07-22T02:35:23;9.33;;;5.80;;
7361;SDS011;3721;44.490;11.220;2022-07-22T02:37:49;9.10;;;6.73;;
7361;SDS011;3721;44.490;11.220;2022-07-22T02:40:15;13.03;;;6.70;;
7361;SDS011;3721;44.490;11.220;2022-07-22T02:42:41;8.20;;;7.03;;
7361;SDS011;3721;44.490;11.220;2022-07-22T02:45:07;9.10;;;6.73;;
7361;SDS011;3721;44.490;11.220;2022-07-22T02:47:34;10.83;;;5.87;;
7361;SDS011;3721;44.490;11.220;2022-07-22T02:50:00;9.03;;;6.20;;
7361;SDS011;3721;44.490;11.220;2022-07-22T02:52:26;9.17;;;6.90;;
7361;SDS011;3721;44.490;11.220;2022-07-22T02:54:52;9.63;;;6.77;;
7361;SDS011;3721;44.490;11.220;2022-07-22T02:57:17;9.50;;;6.67;;
7361;SDS011;3721;44.490;11.220;2022-07-22T02:59:43;8.50;;;6.50;;
7361;SDS011;3721;44.490;11.220;2022-07-22T03:02:10;8.00;;;6.13;;
7361;SDS011;3721;44.490;11.220;2022-07-22T03:04:36;8.87;;;6.80;;
7361;SDS011;3721;44.490;11.220;2022-07-22T03:07:01;12.50;;;8.20;;
7361;SDS011;3721;44.490;11.220;2022-07-22T03:09:27;12.33;;;7.23;;
7361;SDS011;3721;44.490;11.220;2022-07-22T03:11:53;9.27;;;6.67;;
7361;SDS011;3721;44.490;11.220;2022-07-22T03:14:19;9.53;;;6.60;;
7361;SDS011;3721;44.490;11.220;2022-07-22T03:16:44;10.30;;;6.70;;
7361;SDS011;3721;44.490;11.220;2022-07-22T03:19:10;12.93;;;6.93;;
7361;SDS011;3721;44.490;11.220;2022-07-22T03:21:36;9.47;;;7.70;;
7361;SDS011;3721;44.490;11.220;2022-07-22T03:24:02;15.83;;;9.50;;
7361;SDS011;3721;44.490;11.220;2022-07-22T03:26:28;15.57;;;6.60;;
7361;SDS011;3721;44.490;11.220;2022-07-22T03:28:54;9.33;;;6.70;;
7361;SDS011;3721;44.490;11.220;2022-07-22T03:31:20;9.90;;;6.80;;
7361;SDS011;3721;44.490;11.220;2022-07-22T03:33:46;11.30;;;7.07;;
7361;SDS011;3721;44.490;11.220;2022-07-22T03:36:11;8.17;;;7.27;;
7361;SDS011;3721;44.490;11.220;2022-07-22T03:38:37;8.63;;;6.67;;
7361;SDS011;3721;44.490;11.220;2022-07-22T03:41:03;7.70;;;6.63;;
7361;SDS011;3721;44.490;11.220;2022-07-22T03:43:29;11.57;;;6.90;;
7361;SDS011;3721;44.490;11.220;2022-07-22T03:45:55;8.87;;;6.50;;
7361;SDS011;3721;44.490;11.220;2022-07-22T03:48:21;7.60;;;5.57;;
7361;SDS011;3721;44.490;11.220;2022-07-22T03:50:47;8.90;;;7.07;;
7361;SDS011;3721;44.490;11.220;2022-07-22T03:53:14;10.17;;;6.90;;
7361;SDS011;3721;44.490;11.220;2022-07-22T03:55:40;8.50;;;6.57;;
7361;SDS011;3721;44.490;11.220;2022-07-22T03:58:06;7.50;;;6.00;;
7361;SDS011;3721;44.490;11.220;2022-07-22T04:00:32;11.50;;;7.43;;
7361;SDS011;3721;44.490;11.220;2022-07-22T04:02:58;10.07;;;6.60;;
7361;SDS011;3721;44.490;11.220;2022-07-22T04:05:24;9.20;;;6.70;;
7361;SDS011;3721;44.490;11.220;2022-07-22T04:07:50;8.30;;;6.57;;
7361;SDS011;3721;44.490;11.220;2022-07-22T04:10:15;10.60;;;6.37;;
7361;SDS011;3721;44.490;11.220;2022-07-22T04:12:41;9.27;;;6.23;;
7361;SDS011;3721;44.490;11.220;2022-07-22T04:15:07;8.83;;;6.80;;
7361;SDS011;3721;44.490;11.220;2022-07-22T04:17:33;10.53;;;6.60;;
7361;SDS011;3721;44.490;11.220;2022-07-22T04:19:59;9.40;;;6.90;;
7361;SDS011;3721;44.490;11.220;2022-07-22T04:22:29;11.90;;;6.80;;
7361;SDS011;3721;44.490;11.220;2022-07-22T04:24:55;10.87;;;6.80;;
7361;SDS011;3721;44.490;11.220;2022-07-22T04:27:21;9.37;;;6.90;;
7361;SDS011;3721;44.490;11.220;2022-07-22T04:29:47;9.27;;;7.03;;
7361;SDS011;3721;44.490;11.220;2022-07-22T04:32:12;8.70;;;6.93;;
7361;SDS011;3721;44.490;11.220;2022-07-22T04:34:38;9.27;;;7.17;;
7361;SDS011;3721;44.490;11.220;2022-07-22T04:37:04;11.13;;;6.53;;
7361;SDS011;3721;44.490;11.220;2022-07-22T04:39:30;11.87;;;6.90;;
7361;SDS011;3721;44.490;11.220;2022-07-22T04:41:55;9.50;;;6.40;;
7361;SDS011;3721;44.490;11.220;2022-07-22T04:44:21;11.23;;;6.53;;
7361;SDS011;3721;44.490;11.220;2022-07-22T04:46:47;10.67;;;6.23;;
7361;SDS011;3721;44.490;11.220;2022-07-22T04:49:13;10.33;;;7.20;;
7361;SDS011;3721;44.490;11.220;2022-07-22T04:51:39;9.33;;;6.50;;
7361;SDS011;3721;44.490;11.220;2022-07-22T04:54:04;8.67;;;6.73;;
7361;SDS011;3721;44.490;11.220;2022-07-22T04:56:30;10.97;;;5.97;;
7361;SDS011;3721;44.490;11.220;2022-07-22T04:58:56;10.97;;;6.80;;
7361;SDS011;3721;44.490;11.220;2022-07-22T05:01:22;9.10;;;6.10;;
7361;SDS011;3721;44.490;11.220;2022-07-22T05:03:47;10.10;;;6.50;;
7361;SDS011;3721;44.490;11.220;2022-07-22T05:06:13;10.00;;;6.47;;
7361;SDS011;3721;44.490;11.220;2022-07-22T05:08:39;9.00;;;6.33;;
7361;SDS011;3721;44.490;11.220;2022-07-22T05:11:06;7.50;;;6.20;;
7361;SDS011;3721;44.490;11.220;2022-07-22T05:13:32;10.63;;;6.50;;
7361;SDS011;3721;44.490;11.220;2022-07-22T05:16:01;7.00;;;5.77;;
7361;SDS011;3721;44.490;11.220;2022-07-22T05:18:28;9.77;;;6.77;;
7361;SDS011;3721;44.490;11.220;2022-07-22T05:20:54;8.10;;;6.43;;
7361;SDS011;3721;44.490;11.220;2022-07-22T05:23:20;10.90;;;5.93;;
7361;SDS011;3721;44.490;11.220;2022-07-22T05:25:45;11.37;;;6.93;;
7361;SDS011;3721;44.490;11.220;2022-07-22T05:28:11;10.37;;;7.17;;
7361;SDS011;3721;44.490;11.220;2022-07-22T05:30:37;16.07;;;7.03;;
7361;SDS011;3721;44.490;11.220;2022-07-22T05:33:03;8.90;;;6.43;;
7361;SDS011;3721;44.490;11.220;2022-07-22T05:35:29;11.10;;;8.10;;
7361;SDS011;3721;44.490;11.220;2022-07-22T05:37:55;13.13;;;8.60;;
7361;SDS011;3721;44.490;11.220;2022-07-22T05:40:21;11.97;;;6.77;;
7361;SDS011;3721;44.490;11.220;2022-07-22T05:42:47;11.03;;;7.37;;
7361;SDS011;3721;44.490;11.220;2022-07-22T05:45:13;10.93;;;7.90;;
7361;SDS011;3721;44.490;11.220;2022-07-22T05:47:38;12.97;;;7.13;;
7361;SDS011;3721;44.490;11.220;2022-07-22T05:50:04;12.30;;;7.67;;
7361;SDS011;3721;44.490;11.220;2022-07-22T05:52:31;13.20;;;7.70;;
7361;SDS011;3721;44.490;11.220;2022-07-22T05:54:59;12.17;;;7.77;;
7361;SDS011;3721;44.490;11.220;2022-07-22T05:57:25;16.87;;;7.30;;
7361;SDS011;3721;44.490;11.220;2022-07-22T05:59:51;19.43;;;7.70;;
7361;SDS011;3721;44.490;11.220;2022-07-22T06:02:17;19.73;;;7.17;;
7361;SDS011;3721;44.490;11.220;2022-07-22T06:04:43;12.27;;;7.20;;
7361;SDS011;3721;44.490;11.220;2022-07-22T06:07:09;10.90;;;6.60;;
7361;SDS011;3721;44.490;11.220;2022-07-22T06:09:34;7.80;;;6.33;;
7361;SDS011;3721;44.490;11.220;2022-07-22T06:12:00;10.20;;;6.13;;
7361;SDS011;3721;44.490;11.220;2022-07-22T06:14:26;10.70;;;6.00;;
7361;SDS011;3721;44.490;11.220;2022-07-22T06:16:52;11.77;;;6.70;;
7361;SDS011;3721;44.490;11.220;2022-07-22T06:19:17;12.60;;;6.37;;
7361;SDS011;3721;44.490;11.220;2022-07-22T06:21:43;9.10;;;5.80;;
7361;SDS011;3721;44.490;11.220;2022-07-22T06:24:09;12.73;;;7.00;;
7361;SDS011;3721;44.490;11.220;2022-07-22T06:26:35;9.90;;;6.67;;
7361;SDS011;3721;44.490;11.220;2022-07-22T06:29:00;11.33;;;6.03;;
7361;SDS011;3721;44.490;11.220;2022-07-22T06:31:26;8.40;;;6.07;;
7361;SDS011;3721;44.490;11.220;2022-07-22T06:33:52;13.73;;;6.50;;
7361;SDS011;3721;44.490;11.220;2022-07-22T06:36:17;10.90;;;6.57;;
7361;SDS011;3721;44.490;11.220;2022-07-22T06:38:43;7.67;;;5.70;;
7361;SDS011;3721;44.490;11.220;2022-07-22T06:41:09;12.60;;;5.83;;
7361;SDS011;3721;44.490;11.220;2022-07-22T06:43:35;12.50;;;5.97;;
7361;SDS011;3721;44.490;11.220;2022-07-22T06:46:01;11.53;;;5.40;;
7361;SDS011;3721;44.490;11.220;2022-07-22T06:48:27;11.17;;;5.43;;
7361;SDS011;3721;44.490;11.220;2022-07-22T06:50:53;8.73;;;5.20;;
7361;SDS011;3721;44.490;11.220;2022-07-22T06:53:19;7.80;;;4.80;;
7361;SDS011;3721;44.490;11.220;2022-07-22T06:55:45;8.97;;;5.50;;
7361;SDS011;3721;44.490;11.220;2022-07-22T06:58:11;8.43;;;5.50;;
7361;SDS011;3721;44.490;11.220;2022-07-22T07:00:37;9.07;;;5.20;;
7361;SDS011;3721;44.490;11.220;2022-07-22T07:03:03;12.20;;;5.30;;
7361;SDS011;3721;44.490;11.220;2022-07-22T07:05:29;10.60;;;6.63;;
7361;SDS011;3721;44.490;11.220;2022-07-22T07:07:55;7.50;;;3.90;;
7361;SDS011;3721;44.490;11.220;2022-07-22T07:10:22;8.57;;;4.90;;
7361;SDS011;3721;44.490;11.220;2022-07-22T07:12:47;5.90;;;4.13;;
7361;SDS011;3721;44.490;11.220;2022-07-22T07:15:13;8.23;;;4.20;;
7361;SDS011;3721;44.490;11.220;2022-07-22T07:17:39;6.57;;;4.38;;
7361;SDS011;3721;44.490;11.220;2022-07-22T07:20:05;8.07;;;4.03;;
7361;SDS011;3721;44.490;11.220;2022-07-22T07:22:32;7.72;;;4.60;;
7361;SDS011;3721;44.490;11.220;2022-07-22T07:25:02;6.20;;;4.10;;
7361;SDS011;3721;44.490;11.220;2022-07-22T07:27:29;7.18;;;4.22;;
7361;SDS011;3721;44.490;11.220;2022-07-22T07:29:55;9.33;;;4.27;;
7361;SDS011;3721;44.490;11.220;2022-07-22T07:32:21;6.97;;;4.37;;
7361;SDS011;3721;44.490;11.220;2022-07-22T07:34:47;9.00;;;4.47;;
7361;SDS011;3721;44.490;11.220;2022-07-22T07:37:13;7.70;;;4.60;;
7361;SDS011;3721;44.490;11.220;2022-07-22T07:39:38;7.97;;;3.93;;
7361;SDS011;3721;44.490;11.220;2022-07-22T07:42:04;10.23;;;4.90;;
7361;SDS011;3721;44.490;11.220;2022-07-22T07:44:30;9.13;;;3.97;;
7361;SDS011;3721;44.490;11.220;2022-07-22T07:46:56;8.57;;;4.80;;
7361;SDS011;3721;44.490;11.220;2022-07-22T07:49:22;8.53;;;4.80;;
7361;SDS011;3721;44.490;11.220;2022-07-22T07:51:48;8.90;;;4.90;;
7361;SDS011;3721;44.490;11.220;2022-07-22T07:54:14;6.72;;;4.70;;
7361;SDS011;3721;44.490;11.220;2022-07-22T07:56:40;5.70;;;4.37;;
7361;SDS011;3721;44.490;11.220;2022-07-22T07:59:06;5.82;;;4.38;;
7361;SDS011;3721;44.490;11.220;2022-07-22T08:01:31;5.70;;;4.43;;
7361;SDS011;3721;44.490;11.220;2022-07-22T08:03:58;7.83;;;4.27;;
7361;SDS011;3721;44.490;11.220;2022-07-22T08:06:25;6.00;;;4.10;;
7361;SDS011;3721;44.490;11.220;2022-07-22T08:08:50;8.95;;;5.07;;
7361;SDS011;3721;44.490;11.220;2022-07-22T08:11:16;6.05;;;4.72;;
7361;SDS011;3721;44.490;11.220;2022-07-22T08:13:42;7.88;;;4.90;;
7361;SDS011;3721;44.490;11.220;2022-07-22T08:16:08;7.20;;;4.68;;
7361;SDS011;3721;44.490;11.220;2022-07-22T08:18:34;9.55;;;4.32;;
7361;SDS011;3721;44.490;11.220;2022-07-22T08:20:59;8.63;;;4.82;;
7361;SDS011;3721;44.490;11.220;2022-07-22T08:23:25;6.85;;;4.40;;
7361;SDS011;3721;44.490;11.220;2022-07-22T08:25:51;7.78;;;4.82;;
7361;SDS011;3721;44.490;11.220;2022-07-22T08:28:17;6.72;;;4.60;;
7361;SDS011;3721;44.490;11.220;2022-07-22T08:30:43;9.23;;;5.10;;
7361;SDS011;3721;44.490;11.220;2022-07-22T08:33:09;7.47;;;4.63;;
7361;SDS011;3721;44.490;11.220;2022-07-22T08:35:35;9.27;;;4.45;;
7361;SDS011;3721;44.490;11.220;2022-07-22T08:38:01;6.10;;;4.53;;
7361;SDS011;3721;44.490;11.220;2022-07-22T08:40:27;14.43;;;4.80;;
7361;SDS011;3721;44.490;11.220;2022-07-22T08:42:53;7.20;;;4.53;;
7361;SDS011;3721;44.490;11.220;2022-07-22T08:45:19;12.70;;;4.95;;
7361;SDS011;3721;44.490;11.220;2022-07-22T08:47:49;8.30;;;5.32;;
7361;SDS011;3721;44.490;11.220;2022-07-22T08:50:16;8.55;;;4.78;;
7361;SDS011;3721;44.490;11.220;2022-07-22T08:52:43;15.07;;;4.95;;
7361;SDS011;3721;44.490;11.220;2022-07-22T08:55:09;7.35;;;4.72;;
7361;SDS011;3721;44.490;11.220;2022-07-22T08:57:35;7.55;;;4.25;;
7361;SDS011;3721;44.490;11.220;2022-07-22T09:00:10;8.00;;;4.13;;
7361;SDS011;3721;44.490;11.220;2022-07-22T09:02:40;8.00;;;4.40;;
7361;SDS011;3721;44.490;11.220;2022-07-22T09:05:08;6.90;;;3.70;;
7361;SDS011;3721;44.490;11.220;2022-07-22T09:07:37;10.48;;;4.43;;
7361;SDS011;3721;44.490;11.220;2022-07-22T09:10:08;8.60;;;4.20;;
7361;SDS011;3721;44.490;11.220;2022-07-22T09:12:52;5.88;;;4.55;;
7361;SDS011;3721;44.490;11.220;2022-07-22T09:15:34;7.32;;;4.35;;
7361;SDS011;3721;44.490;11.220;2022-07-22T09:18:06;8.70;;;4.35;;
7361;SDS011;3721;44.490;11.220;2022-07-22T09:20:34;5.95;;;3.88;;
7361;SDS011;3721;44.490;11.220;2022-07-22T09:23:01;7.28;;;4.38;;
7361;SDS011;3721;44.490;11.220;2022-07-22T09:30:36;6.93;;;4.65;;
7361;SDS011;3721;44.490;11.220;2022-07-22T09:33:10;7.30;;;4.65;;
7361;SDS011;3721;44.490;11.220;2022-07-22T09:35:36;11.27;;;4.05;;
7361;SDS011;3721;44.490;11.220;2022-07-22T09:38:07;7.28;;;4.05;;
7361;SDS011;3721;44.490;11.220;2022-07-22T09:40:36;5.97;;;4.43;;
7361;SDS011;3721;44.490;11.220;2022-07-22T09:43:05;8.32;;;4.70;;
7361;SDS011;3721;44.490;11.220;2022-07-22T09:45:36;8.10;;;4.63;;
7361;SDS011;3721;44.490;11.220;2022-07-22T09:48:19;6.20;;;4.15;;
7361;SDS011;3721;44.490;11.220;2022-07-22T09:50:46;6.63;;;4.60;;
7361;SDS011;3721;44.490;11.220;2022-07-22T09:53:13;7.43;;;4.65;;
7361;SDS011;3721;44.490;11.220;2022-07-22T09:55:40;7.93;;;4.57;;
7361;SDS011;3721;44.490;11.220;2022-07-22T09:58:06;9.25;;;4.40;;
7361;SDS011;3721;44.490;11.220;2022-07-22T10:00:37;11.95;;;4.90;;
7361;SDS011;3721;44.490;11.220;2022-07-22T10:03:04;8.77;;;4.68;;
7361;SDS011;3721;44.490;11.220;2022-07-22T10:05:33;7.72;;;4.57;;
7361;SDS011;3721;44.490;11.220;2022-07-22T10:08:03;9.02;;;5.00;;
7361;SDS011;3721;44.490;11.220;2022-07-22T10:10:31;9.88;;;4.57;;
7361;SDS011;3721;44.490;11.220;2022-07-22T10:12:59;9.88;;;4.75;;
7361;SDS011;3721;44.490;11.220;2022-07-22T10:15:26;7.95;;;4.82;;
7361;SDS011;3721;44.490;11.220;2022-07-22T10:17:56;5.70;;;4.63;;
7361;SDS011;3721;44.490;11.220;2022-07-22T10:20:26;8.65;;;4.38;;
7361;SDS011;3721;44.490;11.220;2022-07-22T10:22:57;6.22;;;4.57;;
7361;SDS011;3721;44.490;11.220;2022-07-22T10:25:29;6.90;;;4.93;;
7361;SDS011;3721;44.490;11.220;2022-07-22T10:28:01;7.10;;;4.70;;
7361;SDS011;3721;44.490;11.220;2022-07-22T10:30:33;13.18;;;6.25;;
7361;SDS011;3721;44.490;11.220;2022-07-22T10:39:14;8.57;;;4.78;;
7361;SDS011;3721;44.490;11.220;2022-07-22T10:41:51;8.75;;;4.70;;
7361;SDS011;3721;44.490;11.220;2022-07-22T10:44:48;10.15;;;5.10;;
7361;SDS011;3721;44.490;11.220;2022-07-22T10:47:52;12.27;;;4.88;;
7361;SDS011;3721;44.490;11.220;2022-07-22T10:53:06;7.38;;;4.75;;
7361;SDS011;3721;44.490;11.220;2022-07-22T10:55:34;10.85;;;6.00;;
7361;SDS011;3721;44.490;11.220;2022-07-22T11:01:03;6.93;;;4.80;;
7361;SDS011;3721;44.490;11.220;2022-07-22T11:03:32;6.28;;;4.82;;
7361;SDS011;3721;44.490;11.220;2022-07-22T11:08:44;10.27;;;5.72;;
7361;SDS011;3721;44.490;11.220;2022-07-22T11:11:11;8.68;;;5.43;;
7361;SDS011;3721;44.490;11.220;2022-07-22T11:13:38;11.40;;;5.57;;
7361;SDS011;3721;44.490;11.220;2022-07-22T11:16:18;9.60;;;5.70;;
7361;SDS011;3721;44.490;11.220;2022-07-22T11:18:49;8.15;;;5.28;;
7361;SDS011;3721;44.490;11.220;2022-07-22T11:21:27;13.48;;;5.22;;
7361;SDS011;3721;44.490;11.220;2022-07-22T11:23:55;9.38;;;5.20;;
7361;SDS011;3721;44.490;11.220;2022-07-22T11:26:24;14.70;;;5.85;;
7361;SDS011;3721;44.490;11.220;2022-07-22T11:29:01;9.73;;;5.38;;
7361;SDS011;3721;44.490;11.220;2022-07-22T11:31:27;6.75;;;5.45;;
7361;SDS011;3721;44.490;11.220;2022-07-22T11:33:56;8.88;;;5.20;;
7361;SDS011;3721;44.490;11.220;2022-07-22T11:36:33;10.45;;;5.97;;
7361;SDS011;3721;44.490;11.220;2022-07-22T11:39:00;8.60;;;5.40;;
7361;SDS011;3721;44.490;11.220;2022-07-22T11:41:28;7.03;;;5.40;;
7361;SDS011;3721;44.490;11.220;2022-07-22T11:43:55;7.65;;;5.47;;
7361;SDS011;3721;44.490;11.220;2022-07-22T11:46:22;7.47;;;5.65;;
7361;SDS011;3721;44.490;11.220;2022-07-22T11:48:50;7.65;;;4.97;;
7361;SDS011;3721;44.490;11.220;2022-07-22T11:51:17;7.85;;;5.85;;
7361;SDS011;3721;44.490;11.220;2022-07-22T11:53:43;10.43;;;5.82;;
7361;SDS011;3721;44.490;11.220;2022-07-22T11:56:09;6.43;;;5.20;;
7361;SDS011;3721;44.490;11.220;2022-07-22T11:58:43;6.70;;;4.80;;
7361;SDS011;3721;44.490;11.220;2022-07-22T12:01:15;9.02;;;5.78;;
7361;SDS011;3721;44.490;11.220;2022-07-22T12:03:46;7.65;;;6.03;;
7361;SDS011;3721;44.490;11.220;2022-07-22T12:06:15;8.60;;;4.85;;
7361;SDS011;3721;44.490;11.220;2022-07-22T12:08:43;10.40;;;5.90;;
7361;SDS011;3721;44.490;11.220;2022-07-22T12:11:12;7.88;;;4.97;;
7361;SDS011;3721;44.490;11.220;2022-07-22T12:13:47;8.18;;;5.88;;
7361;SDS011;3721;44.490;11.220;2022-07-22T12:21:23;7.38;;;5.40;;
7361;SDS011;3721;44.490;11.220;2022-07-22T12:23:54;8.60;;;5.18;;
7361;SDS011;3721;44.490;11.220;2022-07-22T12:31:53;12.40;;;5.45;;
7361;SDS011;3721;44.490;11.220;2022-07-22T12:34:29;9.77;;;5.07;;
7361;SDS011;3721;44.490;11.220;2022-07-22T12:37:11;7.85;;;5.82;;
7361;SDS011;3721;44.490;11.220;2022-07-22T12:39:58;8.95;;;5.43;;
7361;SDS011;3721;44.490;11.220;2022-07-22T12:42:34;7.82;;;4.93;;
7361;SDS011;3721;44.490;11.220;2022-07-22T12:45:05;12.10;;;4.97;;
7361;SDS011;3721;44.490;11.220;2022-07-22T12:47:42;7.15;;;4.70;;
7361;SDS011;3721;44.490;11.220;2022-07-22T12:52:45;7.75;;;4.70;;
7361;SDS011;3721;44.490;11.220;2022-07-22T12:55:11;14.52;;;4.90;;
7361;SDS011;3721;44.490;11.220;2022-07-22T12:57:37;9.68;;;4.47;;
7361;SDS011;3721;44.490;11.220;2022-07-22T13:00:03;7.30;;;4.35;;
7361;SDS011;3721;44.490;11.220;2022-07-22T13:02:30;7.10;;;4.95;;
7361;SDS011;3721;44.490;11.220;2022-07-22T13:04:56;7.57;;;4.47;;
7361;SDS011;3721;44.490;11.220;2022-07-22T13:07:21;6.65;;;4.47;;
7361;SDS011;3721;44.490;11.220;2022-07-22T13:09:47;9.95;;;4.78;;
7361;SDS011;3721;44.490;11.220;2022-07-22T13:12:13;15.50;;;4.85;;
7361;SDS011;3721;44.490;11.220;2022-07-22T13:14:39;6.53;;;4.60;;
7361;SDS011;3721;44.490;11.220;2022-07-22T13:17:05;9.13;;;4.47;;
7361;SDS011;3721;44.490;11.220;2022-07-22T13:19:31;6.57;;;4.55;;
7361;SDS011;3721;44.490;11.220;2022-07-22T13:21:57;7.97;;;4.90;;
7361;SDS011;3721;44.490;11.220;2022-07-22T13:24:23;5.97;;;4.05;;
7361;SDS011;3721;44.490;11.220;2022-07-22T13:26:48;5.80;;;4.55;;
7361;SDS011;3721;44.490;11.220;2022-07-22T13:29:14;6.03;;;5.30;;
7361;SDS011;3721;44.490;11.220;2022-07-22T13:31:41;7.85;;;4.85;;
7361;SDS011;3721;44.490;11.220;2022-07-22T13:34:07;13.27;;;4.90;;
7361;SDS011;3721;44.490;11.220;2022-07-22T13:36:33;6.75;;;4.40;;
7361;SDS011;3721;44.490;11.220;2022-07-22T13:38:59;9.10;;;4.55;;
7361;SDS011;3721;44.490;11.220;2022-07-22T13:41:25;5.55;;;4.43;;
7361;SDS011;3721;44.490;11.220;2022-07-22T13:43:51;8.57;;;4.05;;
7361;SDS011;3721;44.490;11.220;2022-07-22T13:46:17;11.05;;;4.75;;
7361;SDS011;3721;44.490;11.220;2022-07-22T13:48:43;10.60;;;4.63;;
7361;SDS011;3721;44.490;11.220;2022-07-22T13:51:10;6.43;;;4.38;;
7361;SDS011;3721;44.490;11.220;2022-07-22T13:53:36;6.43;;;4.78;;
7361;SDS011;3721;44.490;11.220;2022-07-22T13:56:02;8.00;;;4.13;;
7361;SDS011;3721;44.490;11.220;2022-07-22T13:58:29;10.15;;;4.82;;
7361;SDS011;3721;44.490;11.220;2022-07-22T14:00:55;5.60;;;4.55;;
7361;SDS011;3721;44.490;11.220;2022-07-22T14:03:21;9.63;;;4.50;;
7361;SDS011;3721;44.490;11.220;2022-07-22T14:05:47;8.23;;;4.93;;
7361;SDS011;3721;44.490;11.220;2022-07-22T14:08:13;6.47;;;3.97;;
7361;SDS011;3721;44.490;11.220;2022-07-22T14:10:39;7.43;;;4.40;;
7361;SDS011;3721;44.490;11.220;2022-07-22T14:13:05;8.77;;;4.43;;
7361;SDS011;3721;44.490;11.220;2022-07-22T14:15:32;6.80;;;4.20;;
7361;SDS011;3721;44.490;11.220;2022-07-22T14:17:58;6.32;;;4.50;;
7361;SDS011;3721;44.490;11.220;2022-07-22T14:20:24;6.57;;;4.60;;
7361;SDS011;3721;44.490;11.220;2022-07-22T14:22:50;7.63;;;4.72;;
7361;SDS011;3721;44.490;11.220;2022-07-22T14:25:15;8.98;;;5.07;;
7361;SDS011;3721;44.490;11.220;2022-07-22T14:27:41;6.13;;;4.72;;
7361;SDS011;3721;44.490;11.220;2022-07-22T14:30:07;6.13;;;4.30;;
7361;SDS011;3721;44.490;11.220;2022-07-22T14:32:33;5.70;;;4.43;;
7361;SDS011;3721;44.490;11.220;2022-07-22T14:34:59;8.15;;;5.18;;
7361;SDS011;3721;44.490;11.220;2022-07-22T14:37:26;10.18;;;5.03;;
7361;SDS011;3721;44.490;11.220;2022-07-22T14:39:52;8.32;;;4.93;;
7361;SDS011;3721;44.490;11.220;2022-07-22T14:42:17;9.75;;;4.82;;
7361;SDS011;3721;44.490;11.220;2022-07-22T14:44:43;8.30;;;4.75;;
7361;SDS011;3721;44.490;11.220;2022-07-22T14:47:09;8.27;;;4.30;;
7361;SDS011;3721;44.490;11.220;2022-07-22T14:49:35;7.55;;;4.00;;
7361;SDS011;3721;44.490;11.220;2022-07-22T14:52:00;9.05;;;4.25;;
7361;SDS011;3721;44.490;11.220;2022-07-22T14:54:26;6.22;;;4.80;;
7361;SDS011;3721;44.490;11.220;2022-07-22T14:56:52;7.30;;;4.68;;
7361;SDS011;3721;44.490;11.220;2022-07-22T14:59:18;6.43;;;4.40;;
7361;SDS011;3721;44.490;11.220;2022-07-22T15:01:44;7.05;;;4.57;;
7361;SDS011;3721;44.490;11.220;2022-07-22T15:04:09;10.80;;;4.32;;
7361;SDS011;3721;44.490;11.220;2022-07-22T15:06:35;9.45;;;4.78;;
7361;SDS011;3721;44.490;11.220;2022-07-22T15:09:01;7.40;;;4.85;;
7361;SDS011;3721;44.490;11.220;2022-07-22T15:11:27;8.43;;;4.72;;
7361;SDS011;3721;44.490;11.220;2022-07-22T15:13:52;10.25;;;4.80;;
7361;SDS011;3721;44.490;11.220;2022-07-22T15:16:18;10.07;;;4.70;;
7361;SDS011;3721;44.490;11.220;2022-07-22T15:18:44;6.85;;;3.97;;
7361;SDS011;3721;44.490;11.220;2022-07-22T15:21:10;7.05;;;4.82;;
7361;SDS011;3721;44.490;11.220;2022-07-22T15:23:36;10.57;;;4.82;;
7361;SDS011;3721;44.490;11.220;2022-07-22T15:26:01;6.78;;;4.00;;
7361;SDS011;3721;44.490;11.220;2022-07-22T15:28:28;10.57;;;5.03;;
7361;SDS011;3721;44.490;11.220;2022-07-22T15:30:57;5.88;;;4.57;;